createdAt,value
2018-08-11T00:00:30.854Z,100.00
2018-08-11T00:03:00.148Z,100.00
2018-08-11T00:05:29.409Z,100.00
2018-08-11T00:07:58.742Z,100.00
2018-08-11T00:10:27.986Z,100.00
2018-08-11T00:12:57.262Z,100.00
2018-08-11T00:15:26.555Z,100.00
2018-08-11T00:17:55.763Z,100.00
2018-08-11T00:20:26.817Z,100.00
2018-08-11T00:22:56.095Z,100.00
2018-08-11T00:25:25.353Z,100.00
2018-08-11T00:27:55.199Z,100.00
2018-08-11T00:30:24.490Z,100.00
2018-08-11T00:32:53.742Z,100.00
2018-08-11T00:35:23.033Z,100.00
2018-08-11T00:37:52.275Z,100.00
2018-08-11T00:40:21.538Z,100.00
2018-08-11T00:42:51.397Z,100.00
2018-08-11T00:45:20.683Z,100.00
2018-08-11T00:47:49.947Z,100.00
2018-08-11T00:50:24.006Z,100.00
2018-08-11T00:52:53.630Z,100.00
2018-08-11T00:55:22.893Z,100.00
2018-08-11T00:57:52.135Z,100.00
2018-08-11T01:00:21.394Z,100.00
2018-08-11T01:02:50.628Z,100.00
2018-08-11T01:05:20.987Z,100.00
2018-08-11T01:07:50.987Z,100.00
2018-08-11T01:10:20.453Z,100.00
2018-08-11T01:12:49.949Z,100.00
2018-08-11T01:15:20.854Z,100.00
2018-08-11T01:17:50.763Z,100.00
2018-08-11T01:20:20.045Z,100.00
2018-08-11T01:22:49.798Z,100.00
2018-08-11T01:25:19.086Z,100.00
2018-08-11T01:27:48.366Z,100.00
2018-08-11T01:30:19.970Z,100.00
2018-08-11T01:32:49.182Z,100.00
2018-08-11T01:35:18.511Z,100.00
2018-08-11T01:37:47.948Z,100.00
2018-08-11T01:40:17.830Z,100.00
2018-08-11T01:42:48.171Z,100.00
2018-08-11T01:45:18.028Z,100.00
2018-08-11T01:47:47.591Z,100.00
2018-08-11T01:50:17.065Z,100.00
2018-08-11T01:52:47.246Z,100.00
2018-08-11T01:55:18.638Z,100.00
2018-08-11T01:57:47.878Z,100.00
2018-08-11T02:00:17.708Z,100.00
2018-08-11T02:02:46.975Z,100.00
2018-08-11T02:05:16.213Z,100.00
2018-08-11T02:07:45.869Z,100.00
2018-08-11T02:10:17.268Z,100.00
2018-08-11T02:12:46.964Z,100.00
2018-08-11T02:15:16.567Z,100.00
2018-08-11T02:17:45.795Z,100.00
2018-08-11T02:20:16.368Z,100.00
2018-08-11T02:22:46.388Z,100.00
2018-08-11T02:25:15.671Z,100.00
2018-08-11T02:27:44.950Z,100.00
2018-08-11T02:30:16.796Z,100.00
2018-08-11T02:32:46.066Z,100.00
2018-08-11T02:35:15.562Z,100.00
2018-08-11T02:37:45.174Z,100.00
2018-08-11T02:40:16.528Z,100.00
2018-08-11T02:42:45.784Z,100.00
2018-08-11T02:45:16.504Z,100.00
2018-08-11T02:47:46.452Z,100.00
2018-08-11T02:50:15.742Z,100.00
2018-08-11T02:52:44.964Z,100.00
2018-08-11T02:55:14.204Z,100.00
2018-08-11T02:57:43.463Z,100.00
2018-08-11T03:00:13.379Z,100.00
2018-08-11T03:02:42.590Z,100.00
2018-08-11T03:05:11.839Z,100.00
2018-08-11T03:07:41.072Z,100.00
2018-08-11T03:10:11.481Z,100.00
2018-08-11T03:12:41.480Z,100.00
2018-08-11T03:15:12.404Z,100.00
2018-08-11T03:17:41.984Z,100.00
2018-08-11T03:20:13.837Z,100.00
2018-08-11T03:22:43.477Z,100.00
2018-08-11T03:25:12.745Z,100.00
2018-08-11T03:27:41.999Z,100.00
2018-08-11T03:30:11.238Z,100.00
2018-08-11T03:32:40.473Z,100.00
2018-08-11T03:35:09.727Z,100.00
2018-08-11T03:37:38.954Z,100.00
2018-08-11T03:40:09.687Z,100.00
2018-08-11T03:42:39.076Z,100.00
2018-08-11T03:45:08.330Z,100.00
2018-08-11T03:47:37.558Z,100.00
2018-08-11T03:50:07.468Z,100.00
2018-08-11T03:52:36.893Z,100.00
2018-08-11T03:55:06.098Z,100.00
2018-08-11T03:57:35.337Z,100.00
2018-08-11T04:00:07.429Z,100.00
2018-08-11T04:02:36.957Z,100.00
2018-08-11T04:05:06.240Z,100.00
2018-08-11T04:07:35.453Z,100.00
2018-08-11T04:10:06.192Z,100.00
2018-08-11T04:12:35.442Z,100.00
2018-08-11T04:15:05.444Z,100.00
2018-08-11T04:17:38.483Z,100.00
2018-08-11T04:20:09.401Z,100.00
2018-08-11T04:22:38.730Z,100.00
2018-08-11T04:25:09.541Z,100.00
2018-08-11T04:27:38.978Z,100.00
2018-08-11T04:30:09.707Z,100.00
2018-08-11T04:32:38.938Z,100.00
2018-08-11T04:35:08.347Z,100.00
2018-08-11T04:37:37.831Z,100.00
2018-08-11T04:40:07.099Z,100.00
2018-08-11T04:42:36.325Z,100.00
2018-08-11T04:45:06.554Z,100.00
2018-08-11T04:47:35.823Z,100.00
2018-08-11T04:50:06.440Z,100.00
2018-08-11T04:52:35.718Z,100.00
2018-08-11T04:55:05.356Z,100.00
2018-08-11T04:57:34.589Z,100.00
2018-08-11T05:00:03.868Z,100.00
2018-08-11T05:02:34.369Z,100.00
2018-08-11T05:05:03.818Z,100.00
2018-08-11T05:07:33.026Z,100.00
2018-08-11T05:10:02.315Z,100.00
2018-08-11T05:12:31.592Z,100.00
2018-08-11T05:15:00.852Z,99.74
2018-08-11T05:17:30.077Z,97.92
2018-08-11T05:19:59.358Z,98.24
2018-08-11T05:22:28.631Z,89.43
2018-08-11T05:24:57.874Z,72.76
2018-08-11T05:27:27.203Z,64.38
2018-08-11T05:29:56.520Z,55.89
2018-08-11T05:32:25.751Z,51.52
2018-08-11T05:34:55.534Z,50.51
2018-08-11T05:37:24.794Z,46.55
2018-08-11T05:39:54.052Z,45.79
2018-08-11T05:42:23.299Z,53.33
2018-08-11T05:44:52.541Z,60.39
2018-08-11T05:47:21.798Z,67.74
2018-08-11T05:49:51.094Z,75.08
2018-08-11T05:52:20.376Z,77.45
2018-08-11T05:54:49.577Z,77.96
2018-08-11T05:57:19.059Z,73.36
2018-08-11T05:59:48.317Z,71.52
2018-08-11T06:02:17.555Z,72.78
2018-08-11T06:04:46.801Z,66.68
2018-08-11T06:07:16.083Z,58.76
2018-08-11T06:09:45.363Z,62.21
2018-08-11T06:12:14.628Z,57.41
2018-08-11T06:14:43.908Z,60.84
2018-08-11T06:17:13.119Z,67.62
2018-08-11T06:19:42.439Z,71.92
2018-08-11T06:22:11.666Z,75.75
2018-08-11T06:24:40.927Z,80.38
2018-08-11T06:27:10.185Z,82.49
2018-08-11T06:29:39.496Z,83.65
2018-08-11T06:32:08.754Z,83.53
2018-08-11T06:34:38.015Z,84.62
2018-08-11T06:37:07.456Z,81.88
2018-08-11T06:39:36.678Z,82.38
2018-08-11T06:42:06.054Z,82.77
2018-08-11T06:44:35.287Z,80.75
2018-08-11T06:47:04.626Z,79.65
2018-08-11T06:49:34.786Z,81.70
2018-08-11T06:52:04.250Z,81.06
2018-08-11T06:54:33.492Z,79.62
2018-08-11T06:57:02.734Z,76.89
2018-08-11T06:59:32.005Z,76.85
2018-08-11T07:02:01.847Z,76.81
2018-08-11T07:04:31.248Z,67.40
2018-08-11T07:07:00.831Z,49.44
2018-08-11T07:09:30.033Z,45.34
2018-08-11T07:11:59.286Z,45.19
2018-08-11T07:14:28.566Z,44.54
2018-08-11T07:16:57.893Z,42.96
2018-08-11T07:19:27.147Z,43.47
2018-08-11T07:21:56.407Z,39.81
2018-08-11T07:24:25.719Z,39.61
2018-08-11T07:26:54.980Z,40.88
2018-08-11T07:29:24.226Z,37.82
2018-08-11T07:31:53.591Z,36.18
2018-08-11T07:34:23.024Z,38.29
2018-08-11T07:36:52.305Z,38.39
2018-08-11T07:39:21.550Z,37.84
2018-08-11T07:41:50.849Z,37.91
2018-08-11T07:44:20.138Z,36.25
2018-08-11T07:46:49.385Z,36.55
2018-08-11T07:49:18.621Z,38.18
2018-08-11T07:51:48.111Z,37.77
2018-08-11T07:54:17.366Z,37.61
2018-08-11T07:56:46.608Z,33.59
2018-08-11T07:59:15.844Z,32.64
2018-08-11T08:01:45.099Z,33.72
2018-08-11T08:04:14.335Z,34.92
2018-08-11T08:06:43.563Z,34.29
2018-08-11T08:09:14.182Z,34.67
2018-08-11T08:11:43.566Z,36.30
2018-08-11T08:14:13.890Z,34.55
2018-08-11T08:16:43.133Z,38.29
2018-08-11T08:19:12.366Z,38.42
2018-08-11T08:21:41.601Z,34.15
2018-08-11T08:24:10.879Z,34.33
2018-08-11T08:26:40.144Z,34.81
2018-08-11T08:29:09.382Z,33.61
2018-08-11T08:31:38.605Z,34.34
2018-08-11T08:34:07.842Z,33.67
2018-08-11T08:36:37.054Z,35.70
2018-08-11T08:39:10.014Z,33.96
2018-08-11T08:41:39.254Z,30.62
2018-08-11T08:44:08.511Z,32.23
2018-08-11T08:46:37.793Z,31.54
2018-08-11T08:49:07.047Z,33.74
2018-08-11T08:51:36.336Z,33.68
2018-08-11T08:54:05.638Z,35.31
2018-08-11T08:56:34.854Z,31.29
2018-08-11T08:59:04.217Z,32.93
2018-08-11T09:01:33.694Z,30.48
2018-08-11T09:04:04.995Z,30.16
2018-08-11T09:06:34.271Z,28.13
2018-08-11T09:09:04.104Z,30.06
2018-08-11T09:11:33.371Z,33.74
2018-08-11T09:14:02.635Z,33.88
2018-08-11T09:16:32.809Z,31.15
2018-08-11T09:19:02.083Z,30.58
2018-08-11T09:21:31.333Z,30.82
2018-08-11T09:24:00.603Z,32.76
2018-08-11T09:26:29.867Z,32.55
2018-08-11T09:28:59.106Z,29.97
2018-08-11T09:31:28.389Z,31.09
2018-08-11T09:33:57.619Z,29.83
2018-08-11T09:36:26.862Z,32.16
2018-08-11T09:38:56.641Z,31.60
2018-08-11T09:41:25.907Z,31.80
2018-08-11T09:43:55.303Z,32.14
2018-08-11T09:46:24.641Z,28.75
2018-08-11T09:48:54.116Z,27.65
2018-08-11T09:51:23.421Z,28.77
2018-08-11T09:53:52.792Z,27.20
2018-08-11T09:56:22.200Z,31.64
2018-08-11T09:58:51.629Z,32.81
2018-08-11T10:01:25.988Z,33.94
2018-08-11T10:03:55.382Z,33.43
2018-08-11T10:06:24.745Z,35.06
2018-08-11T10:08:54.339Z,32.55
2018-08-11T10:11:23.795Z,35.40
2018-08-11T10:13:53.174Z,34.05
2018-08-11T10:16:22.531Z,35.69
2018-08-11T10:18:52.208Z,35.07
2018-08-11T10:21:21.531Z,33.46
2018-08-11T10:23:50.922Z,34.09
2018-08-11T10:26:51.805Z,35.13
2018-08-11T10:29:21.223Z,35.27
2018-08-11T10:31:51.118Z,29.24
2018-08-11T10:34:20.472Z,30.44
2018-08-11T10:36:50.264Z,31.25
2018-08-11T10:39:19.567Z,33.55
2018-08-11T10:41:48.979Z,33.75
2018-08-11T10:44:19.307Z,35.19
2018-08-11T10:46:48.650Z,33.94
2018-08-11T10:49:18.131Z,31.74
2018-08-11T10:51:47.515Z,29.39
2018-08-11T10:54:16.929Z,29.14
2018-08-11T10:56:47.674Z,24.56
2018-08-11T10:59:17.204Z,30.14
2018-08-11T11:01:46.502Z,31.91
2018-08-11T11:04:15.936Z,33.71
2018-08-11T11:06:45.420Z,32.40
2018-08-11T11:09:15.994Z,36.25
2018-08-11T11:11:45.182Z,36.49
2018-08-11T11:14:14.476Z,36.47
2018-08-11T11:16:43.721Z,33.59
2018-08-11T11:19:12.977Z,33.41
2018-08-11T11:21:42.208Z,29.70
2018-08-11T11:24:11.433Z,34.44
2018-08-11T11:26:41.281Z,35.92
2018-08-11T11:29:10.558Z,31.90
2018-08-11T11:31:39.826Z,31.59
2018-08-11T11:34:09.677Z,34.73
2018-08-11T11:36:38.898Z,34.60
2018-08-11T11:39:09.239Z,29.53
2018-08-11T11:41:39.245Z,29.78
2018-08-11T11:44:08.877Z,33.33
2018-08-11T11:46:38.582Z,32.07
2018-08-11T11:49:07.803Z,34.47
2018-08-11T11:51:37.111Z,33.23
2018-08-11T11:54:06.422Z,33.00
2018-08-11T11:56:35.641Z,31.29
2018-08-11T11:59:04.908Z,33.13
2018-08-11T12:01:34.158Z,31.87
2018-08-11T12:04:03.413Z,32.71
2018-08-11T12:06:32.675Z,35.71
2018-08-11T12:09:02.063Z,34.29
2018-08-11T12:11:31.321Z,33.35
2018-08-11T12:14:00.554Z,34.38
2018-08-11T12:16:29.787Z,35.59
2018-08-11T12:18:59.074Z,36.61
2018-08-11T12:21:28.433Z,36.51
2018-08-11T12:23:57.681Z,37.93
2018-08-11T12:26:26.966Z,36.98
2018-08-11T12:28:56.171Z,34.14
2018-08-11T12:31:25.449Z,34.31
2018-08-11T12:33:54.702Z,35.88
2018-08-11T12:36:24.079Z,34.59
2018-08-11T12:38:53.352Z,34.25
2018-08-11T12:41:22.587Z,37.01
2018-08-11T12:43:51.895Z,35.30
2018-08-11T12:46:21.313Z,35.45
2018-08-11T12:48:50.787Z,36.40
2018-08-11T12:51:20.557Z,34.45
2018-08-11T12:53:49.764Z,38.16
2018-08-11T12:56:19.021Z,38.36
2018-08-11T12:58:48.959Z,38.99
2018-08-11T13:01:19.254Z,37.78
2018-08-11T13:03:48.487Z,36.55
2018-08-11T13:06:17.897Z,36.59
2018-08-11T13:08:47.252Z,36.70
2018-08-11T13:11:17.941Z,37.40
2018-08-11T13:13:47.315Z,36.90
2018-08-11T13:16:16.650Z,33.33
2018-08-11T13:18:47.193Z,38.40
2018-08-11T13:21:16.610Z,36.39
2018-08-11T13:23:46.586Z,35.68
2018-08-11T13:26:15.994Z,36.00
2018-08-11T13:28:45.341Z,36.51
2018-08-11T13:31:14.691Z,33.15
2018-08-11T13:33:44.110Z,36.66
2018-08-11T13:36:13.540Z,38.12
2018-08-11T13:38:42.984Z,37.52
2018-08-11T13:41:13.114Z,38.94
2018-08-11T13:43:42.566Z,34.35
2018-08-11T13:46:11.820Z,37.52
2018-08-11T13:48:41.249Z,36.98
2018-08-11T13:51:11.212Z,37.89
2018-08-11T13:53:40.467Z,35.22
2018-08-11T13:56:09.913Z,36.74
2018-08-11T13:58:39.477Z,34.95
2018-08-11T14:01:08.760Z,36.05
2018-08-11T14:03:39.754Z,33.92
2018-08-11T14:06:10.991Z,36.47
2018-08-11T14:08:40.268Z,35.69
2018-08-11T14:11:09.652Z,34.83
2018-08-11T14:13:39.048Z,37.71
2018-08-11T14:16:08.442Z,35.33
2018-08-11T14:18:37.807Z,34.78
2018-08-11T14:21:07.117Z,34.05
2018-08-11T14:23:36.381Z,36.10
2018-08-11T14:26:06.819Z,39.09
2018-08-11T14:28:36.053Z,33.28
2018-08-11T14:31:05.353Z,36.56
2018-08-11T14:33:34.659Z,37.21
2018-08-11T14:36:04.008Z,34.25
2018-08-11T14:38:33.515Z,37.44
2018-08-11T14:41:02.916Z,33.09
2018-08-11T14:43:32.130Z,34.34
2018-08-11T14:46:02.495Z,36.84
2018-08-11T14:48:32.007Z,40.17
2018-08-11T14:51:02.719Z,36.33
2018-08-11T14:53:32.088Z,38.75
2018-08-11T14:56:01.456Z,36.27
2018-08-11T14:58:30.865Z,36.04
2018-08-11T15:01:00.243Z,36.95
2018-08-11T15:03:29.623Z,38.15
2018-08-11T15:05:59.113Z,35.76
2018-08-11T15:08:28.479Z,34.29
2018-08-11T15:10:57.718Z,35.73
2018-08-11T15:13:26.996Z,35.94
2018-08-11T15:15:56.261Z,34.35
2018-08-11T15:18:25.624Z,34.08
2018-08-11T15:20:55.048Z,34.26
2018-08-11T15:23:24.370Z,37.28
2018-08-11T15:25:53.696Z,35.73
2018-08-11T15:28:23.021Z,35.88
2018-08-11T15:30:52.342Z,35.31
2018-08-11T15:33:21.649Z,35.85
2018-08-11T15:35:50.878Z,37.07
2018-08-11T15:38:20.137Z,37.17
2018-08-11T15:40:49.399Z,37.96
2018-08-11T15:43:18.799Z,39.56
2018-08-11T15:45:48.075Z,38.81
2018-08-11T15:48:17.442Z,39.45
2018-08-11T15:50:46.687Z,43.18
2018-08-11T15:53:17.594Z,38.92
2018-08-11T15:55:46.847Z,39.02
2018-08-11T15:58:16.120Z,40.28
2018-08-11T16:00:45.319Z,37.96
2018-08-11T16:03:14.583Z,37.25
2018-08-11T16:05:43.811Z,36.02
2018-08-11T16:08:14.137Z,36.64
2018-08-11T16:10:43.431Z,39.22
2018-08-11T16:13:12.712Z,37.76
2018-08-11T16:15:42.463Z,37.16
2018-08-11T16:18:11.827Z,36.59
2018-08-11T16:20:41.152Z,35.35
2018-08-11T16:23:10.591Z,35.76
2018-08-11T16:25:40.179Z,36.73
2018-08-11T16:28:10.794Z,35.95
2018-08-11T16:30:40.275Z,37.36
2018-08-11T16:33:09.640Z,38.43
2018-08-11T16:35:38.950Z,37.22
2018-08-11T16:38:08.798Z,37.16
2018-08-11T16:40:39.415Z,37.36
2018-08-11T16:43:08.827Z,36.76
2018-08-11T16:45:38.180Z,37.17
2018-08-11T16:48:07.516Z,38.66
2018-08-11T16:50:36.779Z,37.89
2018-08-11T16:53:06.233Z,39.21
2018-08-11T16:55:35.526Z,38.25
2018-08-11T16:58:04.886Z,38.17
2018-08-11T17:00:34.268Z,38.01
2018-08-11T17:03:03.664Z,37.85
2018-08-11T17:05:33.216Z,38.60
2018-08-11T17:08:02.560Z,37.07
2018-08-11T17:10:32.070Z,39.07
2018-08-11T17:13:01.428Z,41.07
2018-08-11T17:15:30.714Z,40.91
2018-08-11T17:17:59.998Z,38.52
2018-08-11T17:20:29.322Z,39.50
2018-08-11T17:22:58.631Z,38.72
2018-08-11T17:25:27.955Z,39.10
2018-08-11T17:27:57.195Z,39.05
2018-08-11T17:30:26.506Z,39.47
2018-08-11T17:32:55.831Z,39.18
2018-08-11T17:35:25.095Z,39.94
2018-08-11T17:37:54.388Z,40.05
2018-08-11T17:40:23.692Z,40.92
2018-08-11T17:42:52.955Z,40.72
2018-08-11T17:45:22.223Z,41.99
2018-08-11T17:47:51.494Z,43.06
2018-08-11T17:50:20.745Z,42.30
2018-08-11T17:52:50.090Z,42.83
2018-08-11T17:55:19.427Z,42.89
2018-08-11T17:57:48.724Z,43.60
2018-08-11T18:00:18.023Z,44.04
2018-08-11T18:02:47.351Z,44.15
2018-08-11T18:05:16.626Z,45.33
2018-08-11T18:07:46.035Z,47.38
2018-08-11T18:10:15.418Z,48.90
2018-08-11T18:12:44.754Z,50.22
2018-08-11T18:15:14.156Z,55.00
2018-08-11T18:17:44.387Z,56.49
2018-08-11T18:20:13.655Z,57.78
2018-08-11T18:22:42.885Z,60.14
2018-08-11T18:25:12.194Z,61.17
2018-08-11T18:27:41.452Z,61.88
2018-08-11T18:30:11.020Z,61.47
2018-08-11T18:32:40.266Z,61.58
2018-08-11T18:35:09.738Z,61.30
2018-08-11T18:37:38.958Z,62.16
2018-08-11T18:40:08.313Z,65.48
2018-08-11T18:42:37.529Z,65.17
2018-08-11T18:45:06.989Z,68.82
2018-08-11T18:47:36.248Z,68.57
2018-08-11T18:50:05.496Z,71.10
2018-08-11T18:52:34.739Z,70.93
2018-08-11T18:55:04.845Z,69.87
2018-08-11T18:57:34.103Z,72.97
2018-08-11T19:00:03.357Z,72.32
2018-08-11T19:02:32.616Z,71.04
2018-08-11T19:05:01.891Z,73.68
2018-08-11T19:07:31.169Z,74.82
2018-08-11T19:10:00.479Z,75.81
2018-08-11T19:12:29.702Z,73.29
2018-08-11T19:14:59.102Z,72.25
2018-08-11T19:17:28.415Z,71.73
2018-08-11T19:19:57.793Z,73.07
2018-08-11T19:22:27.118Z,73.31
2018-08-11T19:24:56.598Z,74.95
2018-08-11T19:27:26.007Z,76.60
2018-08-11T19:29:55.312Z,75.53
2018-08-11T19:32:24.612Z,77.53
2018-08-11T19:34:54.026Z,79.58
2018-08-11T19:37:23.363Z,79.37
2018-08-11T19:39:52.723Z,79.64
2018-08-11T19:42:21.989Z,78.93
2018-08-11T19:44:51.363Z,79.96
2018-08-11T19:47:21.165Z,82.23
2018-08-11T19:49:50.410Z,83.00
2018-08-11T19:52:19.766Z,80.30
2018-08-11T19:54:50.029Z,78.45
2018-08-11T19:57:19.331Z,79.48
2018-08-11T19:59:48.788Z,81.17
2018-08-11T20:02:18.056Z,80.76
2018-08-11T20:04:47.307Z,82.96
2018-08-11T20:07:16.836Z,83.43
2018-08-11T20:09:46.654Z,83.15
2018-08-11T20:12:17.676Z,82.26
2018-08-11T20:14:48.728Z,82.34
2018-08-11T20:17:18.972Z,81.99
2018-08-11T20:19:49.584Z,83.22
2018-08-11T20:22:20.273Z,84.18
2018-08-11T20:24:50.681Z,84.87
2018-08-11T20:27:21.026Z,84.70
2018-08-11T20:29:50.422Z,83.14
2018-08-11T20:32:19.739Z,84.14
2018-08-11T20:34:49.023Z,83.07
2018-08-11T20:37:18.292Z,83.64
2018-08-11T20:39:47.592Z,83.68
2018-08-11T20:42:16.907Z,86.09
2018-08-11T20:44:46.154Z,86.73
2018-08-11T20:47:15.428Z,87.09
2018-08-11T20:49:44.686Z,84.57
2018-08-11T20:52:13.931Z,84.73
2018-08-11T20:54:43.316Z,85.17
2018-08-11T20:57:12.609Z,87.13
2018-08-11T20:59:41.856Z,87.96
2018-08-11T21:02:11.158Z,86.96
2018-08-11T21:04:40.410Z,86.60
2018-08-11T21:07:09.643Z,88.75
2018-08-11T21:09:38.886Z,88.10
2018-08-11T21:12:08.208Z,88.86
2018-08-11T21:14:37.441Z,89.04
2018-08-11T21:17:07.109Z,89.50
2018-08-11T21:19:36.338Z,88.02
2018-08-11T21:22:05.596Z,88.11
2018-08-11T21:24:34.820Z,89.30
2018-08-11T21:27:04.114Z,86.97
2018-08-11T21:29:33.342Z,88.33
2018-08-11T21:32:02.623Z,88.34
2018-08-11T21:34:31.874Z,87.56
2018-08-11T21:37:01.169Z,88.77
2018-08-11T21:39:30.370Z,89.59
2018-08-11T21:41:59.628Z,88.99
2018-08-11T21:44:28.892Z,89.01
2018-08-11T21:46:58.133Z,90.72
2018-08-11T21:49:28.219Z,90.41
2018-08-11T21:51:57.477Z,89.61
2018-08-11T21:54:26.710Z,89.73
2018-08-11T21:56:55.954Z,88.47
2018-08-11T21:59:25.174Z,87.87
2018-08-11T22:01:54.463Z,86.10
2018-08-11T22:04:27.761Z,85.12
2018-08-11T22:06:57.019Z,84.84
2018-08-11T22:09:26.289Z,83.40
2018-08-11T22:11:55.519Z,86.13
2018-08-11T22:14:24.791Z,87.54
2018-08-11T22:16:54.129Z,87.37
2018-08-11T22:19:23.409Z,88.19
2018-08-11T22:21:52.651Z,86.81
2018-08-11T22:24:21.906Z,85.60
2018-08-11T22:26:51.155Z,86.54
2018-08-11T22:29:20.422Z,87.79
2018-08-11T22:31:49.675Z,88.37
2018-08-11T22:34:18.938Z,88.25
2018-08-11T22:36:48.193Z,88.02
2018-08-11T22:39:17.710Z,88.26
2018-08-11T22:41:46.950Z,86.16
2018-08-11T22:44:16.162Z,86.41
2018-08-11T22:46:45.399Z,87.05
2018-08-11T22:49:14.674Z,85.63
2018-08-11T22:51:43.910Z,86.36
2018-08-11T22:54:13.147Z,86.30
2018-08-11T22:56:42.389Z,85.80
2018-08-11T22:59:11.639Z,86.64
2018-08-11T23:01:40.924Z,86.71
2018-08-11T23:04:10.142Z,85.27
2018-08-11T23:06:39.394Z,87.26
2018-08-11T23:09:08.675Z,86.76
2018-08-11T23:11:37.918Z,87.77
2018-08-11T23:14:07.181Z,88.06
2018-08-11T23:16:36.455Z,88.72
2018-08-11T23:19:05.730Z,90.36
2018-08-11T23:21:34.985Z,88.75
2018-08-11T23:24:04.256Z,87.20
2018-08-11T23:26:33.546Z,87.97
2018-08-11T23:29:02.827Z,88.07
2018-08-11T23:31:32.082Z,87.03
2018-08-11T23:34:01.334Z,85.57
2018-08-11T23:36:30.596Z,86.63
2018-08-11T23:39:00.030Z,87.02
2018-08-11T23:41:29.307Z,86.92
2018-08-11T23:43:58.569Z,85.90
2018-08-11T23:46:27.783Z,87.60
2018-08-11T23:48:57.030Z,85.61
2018-08-11T23:51:26.522Z,84.95
2018-08-11T23:53:55.795Z,84.87
2018-08-11T23:56:25.043Z,87.64
2018-08-11T23:58:54.271Z,87.31
